logo dgac
Miércoles 10 de Agosto del 2022
Buscar por aerodromo o helipuerto
Ingrese nombre de aeródromo, localidad o designador OACI:

Aeródromo: Diego Aracena (PUB) (SCDA)

Ubicación: Iquique, I Región, Chile (20º 32' 07'' S, 70º 10' 53'' W) Ver ubicación en el mapa

Pistas

Orientación Dimensión Pendiente Superficie Resistencia APCH THR RWY PAPI
01/19 3.350 x 45 0,50 ASPH PCN 53 F/A/W/T
Horas de operación H24
Elevación 48 m / 156 ft
Otra Información Adm : D.G.A.C.
Uso : PUB
Ubicado a 45 km S Ciudad Iquique
TEL (56) 57 2461200
email : aro.iquique@dgac.gob.cl


Otra información ver AIP-Chile Volumen I AD 2.5.1 SCDA

CCCM/FCCV Descargar
andera de Chile
Mapa de Diego Aracena (PUB) (SCDA)

Último METAR

METAR SCDA 101800Z 33007KT 290V350 9999 SCT028 17/09 Q1016

Último TAF

TAF SCDA 101651Z 1018/1118 27008KT 9999 BKN025 TX17/1018Z TN14/1110Z BECMG 1020/1022 24008KT BECMG 1022/1100 OVC020 BECMG 1101/1103 34004KT BECMG 1116/1118 27008KT BKN025

Últimas fotos cámaras

Imagen aerodromo Diego Aracena (PUB) (SCDA) Norte tomada el 10-08-2022 06:17:29 Imagen aerodromo Diego Aracena (PUB) (SCDA) Sur tomada el 10-08-2022 06:17:07

Último NOTAM

A2988/22 NOTAMN Q)SCFZ/QMNLT/IV/NBO/A/000/999/2032S07011W005 A)SCDA B)2208101816 C)2208250300 E)ACFT MAY EXPERIENCE POSS DELAYS TO ENTRY / EXIT FM/TO APN DUE TO WIP INSTRUCTIONS:IQUIQUE TWR 118.9 MHZ IQUIQUE GNDC 121.7MHZ